sensor_id;sensor_type;location;lat;lon;timestamp;P1;durP1;ratioP1;P2;durP2;ratioP2
68757;SDS011;55747;51.998;4.466;2022-11-18T00:00:02;7.35;;;2.80;;
68757;SDS011;55747;51.998;4.466;2022-11-18T00:02:28;4.05;;;2.60;;
68757;SDS011;55747;51.998;4.466;2022-11-18T00:04:55;4.15;;;2.53;;
68757;SDS011;55747;51.998;4.466;2022-11-18T00:07:20;7.88;;;2.50;;
68757;SDS011;55747;51.998;4.466;2022-11-18T00:09:45;4.80;;;2.70;;
68757;SDS011;55747;51.998;4.466;2022-11-18T00:12:11;3.93;;;2.47;;
68757;SDS011;55747;51.998;4.466;2022-11-18T00:14:54;4.80;;;2.80;;
68757;SDS011;55747;51.998;4.466;2022-11-18T00:17:20;9.80;;;2.75;;
68757;SDS011;55747;51.998;4.466;2022-11-18T00:19:45;5.03;;;2.85;;
68757;SDS011;55747;51.998;4.466;2022-11-18T00:22:11;4.43;;;2.70;;
68757;SDS011;55747;51.998;4.466;2022-11-18T00:24:37;6.65;;;2.95;;
68757;SDS011;55747;51.998;4.466;2022-11-18T00:27:02;6.88;;;2.78;;
68757;SDS011;55747;51.998;4.466;2022-11-18T00:29:28;5.32;;;2.95;;
68757;SDS011;55747;51.998;4.466;2022-11-18T00:31:55;8.35;;;3.40;;
68757;SDS011;55747;51.998;4.466;2022-11-18T00:34:21;4.60;;;3.00;;
68757;SDS011;55747;51.998;4.466;2022-11-18T00:36:47;9.15;;;3.40;;
68757;SDS011;55747;51.998;4.466;2022-11-18T00:39:13;6.15;;;3.60;;
68757;SDS011;55747;51.998;4.466;2022-11-18T00:41:40;8.65;;;3.47;;
68757;SDS011;55747;51.998;4.466;2022-11-18T00:44:25;4.45;;;3.60;;
68757;SDS011;55747;51.998;4.466;2022-11-18T00:46:50;7.10;;;3.50;;
68757;SDS011;55747;51.998;4.466;2022-11-18T00:49:16;6.65;;;3.50;;
68757;SDS011;55747;51.998;4.466;2022-11-18T00:51:41;8.20;;;3.35;;
68757;SDS011;55747;51.998;4.466;2022-11-18T00:54:06;9.23;;;4.00;;
68757;SDS011;55747;51.998;4.466;2022-11-18T00:56:32;7.37;;;3.80;;
68757;SDS011;55747;51.998;4.466;2022-11-18T00:58:57;12.80;;;4.25;;
68757;SDS011;55747;51.998;4.466;2022-11-18T01:01:22;9.20;;;4.45;;
68757;SDS011;55747;51.998;4.466;2022-11-18T01:03:48;8.93;;;4.45;;
68757;SDS011;55747;51.998;4.466;2022-11-18T01:06:13;7.47;;;4.57;;
68757;SDS011;55747;51.998;4.466;2022-11-18T01:08:38;8.93;;;4.60;;
68757;SDS011;55747;51.998;4.466;2022-11-18T01:11:04;9.80;;;4.63;;
68757;SDS011;55747;51.998;4.466;2022-11-18T01:13:49;9.60;;;4.82;;
68757;SDS011;55747;51.998;4.466;2022-11-18T01:16:18;7.05;;;4.68;;
68757;SDS011;55747;51.998;4.466;2022-11-18T01:18:45;8.50;;;4.93;;
68757;SDS011;55747;51.998;4.466;2022-11-18T01:21:11;11.82;;;4.95;;
68757;SDS011;55747;51.998;4.466;2022-11-18T01:23:36;8.80;;;4.53;;
68757;SDS011;55747;51.998;4.466;2022-11-18T01:26:05;9.27;;;4.78;;
68757;SDS011;55747;51.998;4.466;2022-11-18T01:28:33;8.18;;;4.95;;
68757;SDS011;55747;51.998;4.466;2022-11-18T01:31:06;8.38;;;4.55;;
68757;SDS011;55747;51.998;4.466;2022-11-18T01:33:33;7.70;;;5.10;;
68757;SDS011;55747;51.998;4.466;2022-11-18T01:35:58;9.45;;;5.22;;
68757;SDS011;55747;51.998;4.466;2022-11-18T01:38:23;11.57;;;5.60;;
68757;SDS011;55747;51.998;4.466;2022-11-18T01:40:49;8.10;;;5.40;;
68757;SDS011;55747;51.998;4.466;2022-11-18T01:43:15;13.98;;;5.90;;
68757;SDS011;55747;51.998;4.466;2022-11-18T01:45:44;9.25;;;5.35;;
68757;SDS011;55747;51.998;4.466;2022-11-18T01:50:42;12.00;;;6.22;;
68757;SDS011;55747;51.998;4.466;2022-11-18T01:53:13;9.50;;;6.25;;
68757;SDS011;55747;51.998;4.466;2022-11-18T01:55:45;10.27;;;6.30;;
68757;SDS011;55747;51.998;4.466;2022-11-18T01:58:15;9.45;;;6.03;;
68757;SDS011;55747;51.998;4.466;2022-11-18T02:00:47;13.23;;;5.97;;
68757;SDS011;55747;51.998;4.466;2022-11-18T02:03:13;9.65;;;5.95;;
68757;SDS011;55747;51.998;4.466;2022-11-18T02:05:40;10.65;;;6.45;;
68757;SDS011;55747;51.998;4.466;2022-11-18T02:08:07;9.93;;;6.43;;
68757;SDS011;55747;51.998;4.466;2022-11-18T02:10:33;10.20;;;5.95;;
68757;SDS011;55747;51.998;4.466;2022-11-18T02:12:59;14.65;;;7.00;;
68757;SDS011;55747;51.998;4.466;2022-11-18T02:15:31;10.25;;;6.35;;
68757;SDS011;55747;51.998;4.466;2022-11-18T02:20:39;10.38;;;6.80;;
68757;SDS011;55747;51.998;4.466;2022-11-18T02:30:57;11.40;;;7.32;;
68757;SDS011;55747;51.998;4.466;2022-11-18T02:33:37;12.18;;;7.97;;
68757;SDS011;55747;51.998;4.466;2022-11-18T02:36:26;13.98;;;7.60;;
68757;SDS011;55747;51.998;4.466;2022-11-18T02:39:02;13.93;;;7.57;;
68757;SDS011;55747;51.998;4.466;2022-11-18T02:41:32;12.88;;;7.38;;
68757;SDS011;55747;51.998;4.466;2022-11-18T02:44:04;12.95;;;7.90;;
68757;SDS011;55747;51.998;4.466;2022-11-18T02:46:35;13.10;;;7.97;;
68757;SDS011;55747;51.998;4.466;2022-11-18T02:49:03;13.70;;;8.10;;
68757;SDS011;55747;51.998;4.466;2022-11-18T02:51:33;10.95;;;7.55;;
68757;SDS011;55747;51.998;4.466;2022-11-18T02:54:04;11.57;;;7.90;;
68757;SDS011;55747;51.998;4.466;2022-11-18T02:56:32;13.60;;;7.90;;
68757;SDS011;55747;51.998;4.466;2022-11-18T02:58:59;17.95;;;8.27;;
68757;SDS011;55747;51.998;4.466;2022-11-18T03:01:25;12.65;;;8.10;;
68757;SDS011;55747;51.998;4.466;2022-11-18T03:03:54;13.02;;;8.38;;
68757;SDS011;55747;51.998;4.466;2022-11-18T03:06:26;14.20;;;7.90;;
68757;SDS011;55747;51.998;4.466;2022-11-18T03:14:19;16.85;;;7.90;;
68757;SDS011;55747;51.998;4.466;2022-11-18T03:16:59;16.10;;;7.88;;
68757;SDS011;55747;51.998;4.466;2022-11-18T03:24:32;12.43;;;6.68;;
68757;SDS011;55747;51.998;4.466;2022-11-18T03:27:04;12.68;;;6.88;;
68757;SDS011;55747;51.998;4.466;2022-11-18T03:29:47;13.90;;;7.47;;
68757;SDS011;55747;51.998;4.466;2022-11-18T03:32:17;16.23;;;7.07;;
68757;SDS011;55747;51.998;4.466;2022-11-18T03:34:48;14.35;;;7.15;;
68757;SDS011;55747;51.998;4.466;2022-11-18T03:37:16;14.52;;;6.90;;
68757;SDS011;55747;51.998;4.466;2022-11-18T03:39:48;10.10;;;6.57;;
68757;SDS011;55747;51.998;4.466;2022-11-18T03:42:22;16.98;;;7.57;;
68757;SDS011;55747;51.998;4.466;2022-11-18T03:44:56;13.02;;;6.47;;
68757;SDS011;55747;51.998;4.466;2022-11-18T03:47:34;15.02;;;6.93;;
68757;SDS011;55747;51.998;4.466;2022-11-18T03:50:07;13.43;;;6.50;;
68757;SDS011;55747;51.998;4.466;2022-11-18T03:52:41;11.98;;;6.50;;
68757;SDS011;55747;51.998;4.466;2022-11-18T03:55:12;12.05;;;5.97;;
68757;SDS011;55747;51.998;4.466;2022-11-18T04:00:14;11.15;;;6.82;;
68757;SDS011;55747;51.998;4.466;2022-11-18T04:02:41;10.70;;;6.50;;
68757;SDS011;55747;51.998;4.466;2022-11-18T04:05:09;14.50;;;6.85;;
68757;SDS011;55747;51.998;4.466;2022-11-18T04:10:18;11.48;;;6.35;;
68757;SDS011;55747;51.998;4.466;2022-11-18T04:13:15;12.85;;;6.72;;
68757;SDS011;55747;51.998;4.466;2022-11-18T04:15:53;12.68;;;6.47;;
68757;SDS011;55747;51.998;4.466;2022-11-18T04:18:19;9.88;;;6.43;;
68757;SDS011;55747;51.998;4.466;2022-11-18T04:20:45;14.85;;;6.30;;
68757;SDS011;55747;51.998;4.466;2022-11-18T04:23:10;12.18;;;6.80;;
68757;SDS011;55747;51.998;4.466;2022-11-18T04:25:35;12.27;;;6.67;;
68757;SDS011;55747;51.998;4.466;2022-11-18T04:28:01;9.23;;;6.38;;
68757;SDS011;55747;51.998;4.466;2022-11-18T04:30:26;11.50;;;5.70;;
68757;SDS011;55747;51.998;4.466;2022-11-18T04:32:52;13.32;;;6.25;;
68757;SDS011;55747;51.998;4.466;2022-11-18T04:35:17;15.20;;;6.18;;
68757;SDS011;55747;51.998;4.466;2022-11-18T04:37:43;10.85;;;5.60;;
68757;SDS011;55747;51.998;4.466;2022-11-18T04:40:08;8.80;;;5.70;;
68757;SDS011;55747;51.998;4.466;2022-11-18T04:42:34;14.65;;;6.47;;
68757;SDS011;55747;51.998;4.466;2022-11-18T04:45:00;15.77;;;6.20;;
68757;SDS011;55747;51.998;4.466;2022-11-18T04:47:25;10.45;;;6.50;;
68757;SDS011;55747;51.998;4.466;2022-11-18T04:49:51;10.73;;;6.03;;
68757;SDS011;55747;51.998;4.466;2022-11-18T04:52:16;10.38;;;5.80;;
68757;SDS011;55747;51.998;4.466;2022-11-18T04:54:41;13.35;;;6.13;;
68757;SDS011;55747;51.998;4.466;2022-11-18T04:57:07;16.05;;;6.32;;
68757;SDS011;55747;51.998;4.466;2022-11-18T04:59:32;11.68;;;5.63;;
68757;SDS011;55747;51.998;4.466;2022-11-18T05:01:57;14.02;;;6.03;;
68757;SDS011;55747;51.998;4.466;2022-11-18T05:04:26;17.52;;;5.95;;
68757;SDS011;55747;51.998;4.466;2022-11-18T05:06:54;12.05;;;5.28;;
68757;SDS011;55747;51.998;4.466;2022-11-18T05:09:19;9.55;;;5.70;;
68757;SDS011;55747;51.998;4.466;2022-11-18T05:11:45;11.52;;;5.47;;
68757;SDS011;55747;51.998;4.466;2022-11-18T05:14:29;13.82;;;6.35;;
68757;SDS011;55747;51.998;4.466;2022-11-18T05:16:55;15.20;;;5.85;;
68757;SDS011;55747;51.998;4.466;2022-11-18T05:19:22;11.02;;;5.60;;
68757;SDS011;55747;51.998;4.466;2022-11-18T05:21:48;10.85;;;5.63;;
68757;SDS011;55747;51.998;4.466;2022-11-18T05:24:13;11.00;;;5.50;;
68757;SDS011;55747;51.998;4.466;2022-11-18T05:26:39;11.70;;;5.60;;
68757;SDS011;55747;51.998;4.466;2022-11-18T05:29:04;12.00;;;6.10;;
68757;SDS011;55747;51.998;4.466;2022-11-18T05:31:30;13.48;;;6.32;;
68757;SDS011;55747;51.998;4.466;2022-11-18T05:33:55;10.55;;;5.90;;
68757;SDS011;55747;51.998;4.466;2022-11-18T05:36:21;12.10;;;6.00;;
68757;SDS011;55747;51.998;4.466;2022-11-18T05:38:47;13.75;;;6.68;;
68757;SDS011;55747;51.998;4.466;2022-11-18T05:41:13;14.88;;;6.03;;
68757;SDS011;55747;51.998;4.466;2022-11-18T05:43:59;12.15;;;6.53;;
68757;SDS011;55747;51.998;4.466;2022-11-18T05:46:25;12.05;;;6.05;;
68757;SDS011;55747;51.998;4.466;2022-11-18T05:48:50;14.48;;;6.50;;
68757;SDS011;55747;51.998;4.466;2022-11-18T05:51:16;13.37;;;6.50;;
68757;SDS011;55747;51.998;4.466;2022-11-18T05:53:41;16.25;;;6.60;;
68757;SDS011;55747;51.998;4.466;2022-11-18T05:56:18;17.07;;;6.43;;
68757;SDS011;55747;51.998;4.466;2022-11-18T05:58:47;12.13;;;6.05;;
68757;SDS011;55747;51.998;4.466;2022-11-18T06:01:13;14.05;;;6.75;;
68757;SDS011;55747;51.998;4.466;2022-11-18T06:03:43;12.40;;;6.37;;
68757;SDS011;55747;51.998;4.466;2022-11-18T06:06:09;15.05;;;6.65;;
68757;SDS011;55747;51.998;4.466;2022-11-18T06:08:43;13.70;;;6.57;;
68757;SDS011;55747;51.998;4.466;2022-11-18T06:11:21;13.88;;;6.78;;
68757;SDS011;55747;51.998;4.466;2022-11-18T06:13:54;15.43;;;6.78;;
68757;SDS011;55747;51.998;4.466;2022-11-18T06:16:25;16.00;;;6.68;;
68757;SDS011;55747;51.998;4.466;2022-11-18T06:18:53;14.85;;;7.25;;
68757;SDS011;55747;51.998;4.466;2022-11-18T06:21:18;15.00;;;7.00;;
68757;SDS011;55747;51.998;4.466;2022-11-18T06:23:44;16.27;;;6.95;;
68757;SDS011;55747;51.998;4.466;2022-11-18T06:26:11;13.65;;;6.57;;
68757;SDS011;55747;51.998;4.466;2022-11-18T06:28:38;12.25;;;6.57;;
68757;SDS011;55747;51.998;4.466;2022-11-18T06:31:04;15.60;;;7.15;;
68757;SDS011;55747;51.998;4.466;2022-11-18T06:33:29;24.15;;;7.50;;
68757;SDS011;55747;51.998;4.466;2022-11-18T06:35:55;14.83;;;6.50;;
68757;SDS011;55747;51.998;4.466;2022-11-18T06:38:22;13.55;;;6.63;;
68757;SDS011;55747;51.998;4.466;2022-11-18T06:40:48;12.65;;;6.35;;
68757;SDS011;55747;51.998;4.466;2022-11-18T06:43:13;13.23;;;6.23;;
68757;SDS011;55747;51.998;4.466;2022-11-18T06:46:01;15.25;;;7.10;;
68757;SDS011;55747;51.998;4.466;2022-11-18T06:48:57;13.57;;;6.03;;
68757;SDS011;55747;51.998;4.466;2022-11-18T06:51:23;14.90;;;6.35;;
68757;SDS011;55747;51.998;4.466;2022-11-18T06:53:49;13.10;;;6.68;;
68757;SDS011;55747;51.998;4.466;2022-11-18T06:56:16;12.98;;;6.03;;
68757;SDS011;55747;51.998;4.466;2022-11-18T06:58:42;17.05;;;7.07;;
68757;SDS011;55747;51.998;4.466;2022-11-18T07:01:18;15.70;;;6.80;;
68757;SDS011;55747;51.998;4.466;2022-11-18T07:03:46;14.65;;;5.72;;
68757;SDS011;55747;51.998;4.466;2022-11-18T07:06:13;18.73;;;6.18;;
68757;SDS011;55747;51.998;4.466;2022-11-18T07:08:40;12.32;;;5.68;;
68757;SDS011;55747;51.998;4.466;2022-11-18T07:11:08;11.68;;;5.32;;
68757;SDS011;55747;51.998;4.466;2022-11-18T07:13:36;12.60;;;5.28;;
68757;SDS011;55747;51.998;4.466;2022-11-18T07:16:13;13.88;;;5.70;;
68757;SDS011;55747;51.998;4.466;2022-11-18T07:18:41;12.27;;;5.40;;
68757;SDS011;55747;51.998;4.466;2022-11-18T07:21:08;10.75;;;4.82;;
68757;SDS011;55747;51.998;4.466;2022-11-18T07:23:35;11.18;;;4.95;;
68757;SDS011;55747;51.998;4.466;2022-11-18T07:26:01;12.68;;;4.68;;
68757;SDS011;55747;51.998;4.466;2022-11-18T07:28:27;13.25;;;5.53;;
68757;SDS011;55747;51.998;4.466;2022-11-18T07:30:59;11.60;;;5.30;;
68757;SDS011;55747;51.998;4.466;2022-11-18T07:33:29;11.02;;;4.90;;
68757;SDS011;55747;51.998;4.466;2022-11-18T07:35:55;12.48;;;5.00;;
68757;SDS011;55747;51.998;4.466;2022-11-18T07:38:20;9.63;;;4.40;;
68757;SDS011;55747;51.998;4.466;2022-11-18T07:40:45;13.73;;;4.68;;
68757;SDS011;55747;51.998;4.466;2022-11-18T07:43:11;10.83;;;4.73;;
68757;SDS011;55747;51.998;4.466;2022-11-18T07:45:36;7.13;;;4.60;;
68757;SDS011;55747;51.998;4.466;2022-11-18T07:51:24;14.65;;;5.05;;
68757;SDS011;55747;51.998;4.466;2022-11-18T07:53:51;11.23;;;4.03;;
68757;SDS011;55747;51.998;4.466;2022-11-18T07:56:17;9.60;;;4.28;;
68757;SDS011;55747;51.998;4.466;2022-11-18T07:58:43;9.80;;;4.68;;
68757;SDS011;55747;51.998;4.466;2022-11-18T08:01:09;8.15;;;4.50;;
68757;SDS011;55747;51.998;4.466;2022-11-18T08:03:35;12.13;;;4.35;;
68757;SDS011;55747;51.998;4.466;2022-11-18T08:06:02;14.68;;;4.63;;
68757;SDS011;55747;51.998;4.466;2022-11-18T08:08:28;10.98;;;4.20;;
68757;SDS011;55747;51.998;4.466;2022-11-18T08:10:54;12.43;;;4.50;;
68757;SDS011;55747;51.998;4.466;2022-11-18T08:13:23;11.90;;;4.18;;
68757;SDS011;55747;51.998;4.466;2022-11-18T08:15:49;10.98;;;4.40;;
68757;SDS011;55747;51.998;4.466;2022-11-18T08:18:15;13.13;;;4.03;;
68757;SDS011;55747;51.998;4.466;2022-11-18T08:20:40;9.82;;;3.60;;
68757;SDS011;55747;51.998;4.466;2022-11-18T08:23:05;8.53;;;3.73;;
68757;SDS011;55747;51.998;4.466;2022-11-18T08:25:31;11.43;;;3.63;;
68757;SDS011;55747;51.998;4.466;2022-11-18T08:27:56;8.95;;;3.67;;
68757;SDS011;55747;51.998;4.466;2022-11-18T08:30:21;9.18;;;4.03;;
68757;SDS011;55747;51.998;4.466;2022-11-18T08:32:47;10.20;;;3.33;;
68757;SDS011;55747;51.998;4.466;2022-11-18T08:35:12;13.95;;;4.65;;
68757;SDS011;55747;51.998;4.466;2022-11-18T08:37:37;12.18;;;3.80;;
68757;SDS011;55747;51.998;4.466;2022-11-18T08:40:03;9.50;;;3.75;;
68757;SDS011;55747;51.998;4.466;2022-11-18T08:42:29;12.68;;;3.50;;
68757;SDS011;55747;51.998;4.466;2022-11-18T08:44:54;12.53;;;3.67;;
68757;SDS011;55747;51.998;4.466;2022-11-18T08:47:19;8.63;;;3.67;;
68757;SDS011;55747;51.998;4.466;2022-11-18T08:49:45;8.68;;;3.20;;
68757;SDS011;55747;51.998;4.466;2022-11-18T08:52:10;10.40;;;3.80;;
68757;SDS011;55747;51.998;4.466;2022-11-18T08:54:35;11.33;;;3.40;;
68757;SDS011;55747;51.998;4.466;2022-11-18T08:57:01;8.25;;;3.40;;
68757;SDS011;55747;51.998;4.466;2022-11-18T08:59:26;6.78;;;3.40;;
68757;SDS011;55747;51.998;4.466;2022-11-18T09:01:51;11.57;;;3.67;;
68757;SDS011;55747;51.998;4.466;2022-11-18T09:04:17;8.27;;;3.40;;
68757;SDS011;55747;51.998;4.466;2022-11-18T09:06:42;9.15;;;3.60;;
68757;SDS011;55747;51.998;4.466;2022-11-18T09:09:08;8.48;;;3.58;;
68757;SDS011;55747;51.998;4.466;2022-11-18T09:11:34;10.90;;;3.70;;
68757;SDS011;55747;51.998;4.466;2022-11-18T09:14:00;10.30;;;3.80;;
68757;SDS011;55747;51.998;4.466;2022-11-18T09:16:26;10.50;;;3.92;;
68757;SDS011;55747;51.998;4.466;2022-11-18T09:18:53;10.70;;;3.97;;
68757;SDS011;55747;51.998;4.466;2022-11-18T09:21:19;10.50;;;3.80;;
68757;SDS011;55747;51.998;4.466;2022-11-18T09:23:45;11.80;;;4.07;;
68757;SDS011;55747;51.998;4.466;2022-11-18T09:26:11;8.32;;;4.00;;
68757;SDS011;55747;51.998;4.466;2022-11-18T09:28:38;10.50;;;3.80;;
68757;SDS011;55747;51.998;4.466;2022-11-18T09:31:22;8.13;;;3.55;;
68757;SDS011;55747;51.998;4.466;2022-11-18T09:33:47;8.77;;;3.45;;
68757;SDS011;55747;51.998;4.466;2022-11-18T09:36:17;10.50;;;3.63;;
68757;SDS011;55747;51.998;4.466;2022-11-18T09:38:44;11.90;;;3.60;;
68757;SDS011;55747;51.998;4.466;2022-11-18T09:44:06;9.50;;;3.45;;
68757;SDS011;55747;51.998;4.466;2022-11-18T09:49:29;9.55;;;3.30;;
68757;SDS011;55747;51.998;4.466;2022-11-18T09:52:00;9.05;;;3.38;;
68757;SDS011;55747;51.998;4.466;2022-11-18T09:54:29;20.05;;;4.00;;
68757;SDS011;55747;51.998;4.466;2022-11-18T09:56:58;14.73;;;4.55;;
68757;SDS011;55747;51.998;4.466;2022-11-18T09:59:24;11.43;;;4.07;;
68757;SDS011;55747;51.998;4.466;2022-11-18T10:01:53;11.23;;;3.58;;
68757;SDS011;55747;51.998;4.466;2022-11-18T10:04:22;10.45;;;3.70;;
68757;SDS011;55747;51.998;4.466;2022-11-18T10:06:48;10.40;;;3.58;;
68757;SDS011;55747;51.998;4.466;2022-11-18T10:09:31;12.90;;;4.47;;
68757;SDS011;55747;51.998;4.466;2022-11-18T10:15:17;11.20;;;3.58;;
68757;SDS011;55747;51.998;4.466;2022-11-18T10:17:55;12.85;;;3.42;;
68757;SDS011;55747;51.998;4.466;2022-11-18T10:20:27;12.52;;;3.55;;
68757;SDS011;55747;51.998;4.466;2022-11-18T10:25:45;10.35;;;3.35;;
68757;SDS011;55747;51.998;4.466;2022-11-18T10:28:15;9.03;;;3.47;;
68757;SDS011;55747;51.998;4.466;2022-11-18T10:31:02;12.60;;;4.18;;
68757;SDS011;55747;51.998;4.466;2022-11-18T10:33:29;8.38;;;3.42;;
68757;SDS011;55747;51.998;4.466;2022-11-18T10:38:35;8.93;;;3.30;;
68757;SDS011;55747;51.998;4.466;2022-11-18T10:41:02;10.38;;;3.15;;
68757;SDS011;55747;51.998;4.466;2022-11-18T10:43:44;12.85;;;3.42;;
68757;SDS011;55747;51.998;4.466;2022-11-18T10:46:29;13.32;;;3.50;;
68757;SDS011;55747;51.998;4.466;2022-11-18T10:49:10;10.57;;;3.67;;
68757;SDS011;55747;51.998;4.466;2022-11-18T10:51:39;10.35;;;3.35;;
68757;SDS011;55747;51.998;4.466;2022-11-18T10:54:13;9.07;;;3.53;;
68757;SDS011;55747;51.998;4.466;2022-11-18T10:59:17;9.43;;;3.72;;
68757;SDS011;55747;51.998;4.466;2022-11-18T11:01:57;12.77;;;3.88;;
68757;SDS011;55747;51.998;4.466;2022-11-18T11:04:24;7.93;;;4.00;;
68757;SDS011;55747;51.998;4.466;2022-11-18T11:06:51;9.07;;;4.47;;
68757;SDS011;55747;51.998;4.466;2022-11-18T11:09:30;12.45;;;4.38;;
68757;SDS011;55747;51.998;4.466;2022-11-18T11:12:16;12.70;;;4.75;;
68757;SDS011;55747;51.998;4.466;2022-11-18T11:14:45;13.50;;;4.60;;
68757;SDS011;55747;51.998;4.466;2022-11-18T11:17:17;12.70;;;4.80;;
68757;SDS011;55747;51.998;4.466;2022-11-18T11:22:15;13.20;;;4.95;;
68757;SDS011;55747;51.998;4.466;2022-11-18T11:24:41;13.00;;;4.53;;
68757;SDS011;55747;51.998;4.466;2022-11-18T11:27:12;14.10;;;4.97;;
68757;SDS011;55747;51.998;4.466;2022-11-18T11:29:54;13.05;;;5.35;;
68757;SDS011;55747;51.998;4.466;2022-11-18T11:32:30;15.60;;;6.30;;
68757;SDS011;55747;51.998;4.466;2022-11-18T11:38:00;15.18;;;5.90;;
68757;SDS011;55747;51.998;4.466;2022-11-18T11:51:24;13.68;;;7.53;;
68757;SDS011;55747;51.998;4.466;2022-11-18T11:54:00;13.02;;;8.05;;
68757;SDS011;55747;51.998;4.466;2022-11-18T11:59:10;14.35;;;7.82;;
68757;SDS011;55747;51.998;4.466;2022-11-18T12:05:02;17.38;;;7.78;;
68757;SDS011;55747;51.998;4.466;2022-11-18T12:08:01;14.02;;;7.60;;
68757;SDS011;55747;51.998;4.466;2022-11-18T12:10:39;14.63;;;7.72;;
68757;SDS011;55747;51.998;4.466;2022-11-18T12:13:24;20.35;;;8.25;;
68757;SDS011;55747;51.998;4.466;2022-11-18T12:26:42;14.43;;;8.07;;
68757;SDS011;55747;51.998;4.466;2022-11-18T12:31:42;16.40;;;8.77;;
68757;SDS011;55747;51.998;4.466;2022-11-18T12:34:18;20.35;;;9.45;;
68757;SDS011;55747;51.998;4.466;2022-11-18T12:36:54;16.88;;;9.50;;
68757;SDS011;55747;51.998;4.466;2022-11-18T12:42:03;16.25;;;9.30;;
68757;SDS011;55747;51.998;4.466;2022-11-18T12:44:49;23.25;;;10.77;;
68757;SDS011;55747;51.998;4.466;2022-11-18T12:50:10;22.33;;;11.13;;
68757;SDS011;55747;51.998;4.466;2022-11-18T12:55:17;18.90;;;12.98;;
68757;SDS011;55747;51.998;4.466;2022-11-18T12:57:48;27.27;;;12.35;;
68757;SDS011;55747;51.998;4.466;2022-11-18T13:02:51;22.77;;;13.30;;
68757;SDS011;55747;51.998;4.466;2022-11-18T13:05:19;22.25;;;12.63;;
68757;SDS011;55747;51.998;4.466;2022-11-18T13:07:50;19.60;;;11.77;;
68757;SDS011;55747;51.998;4.466;2022-11-18T13:10:38;23.05;;;13.02;;
68757;SDS011;55747;51.998;4.466;2022-11-18T13:13:18;20.33;;;12.57;;
68757;SDS011;55747;51.998;4.466;2022-11-18T13:15:56;17.48;;;11.45;;
68757;SDS011;55747;51.998;4.466;2022-11-18T13:21:21;28.40;;;11.30;;
68757;SDS011;55747;51.998;4.466;2022-11-18T13:24:10;16.98;;;11.57;;
68757;SDS011;55747;51.998;4.466;2022-11-18T13:26:39;17.77;;;12.00;;
68757;SDS011;55747;51.998;4.466;2022-11-18T13:31:47;18.47;;;12.00;;
68757;SDS011;55747;51.998;4.466;2022-11-18T13:34:23;21.05;;;12.63;;
68757;SDS011;55747;51.998;4.466;2022-11-18T13:36:52;18.27;;;12.15;;
68757;SDS011;55747;51.998;4.466;2022-11-18T13:39:23;21.92;;;12.15;;
68757;SDS011;55747;51.998;4.466;2022-11-18T13:44:37;21.00;;;12.50;;
68757;SDS011;55747;51.998;4.466;2022-11-18T13:52:33;22.60;;;12.68;;
68757;SDS011;55747;51.998;4.466;2022-11-18T13:55:00;21.70;;;12.63;;
68757;SDS011;55747;51.998;4.466;2022-11-18T13:57:32;20.95;;;13.68;;
68757;SDS011;55747;51.998;4.466;2022-11-18T14:00:01;25.08;;;13.45;;
68757;SDS011;55747;51.998;4.466;2022-11-18T14:02:30;23.38;;;14.68;;
68757;SDS011;55747;51.998;4.466;2022-11-18T14:05:02;18.30;;;12.80;;
68757;SDS011;55747;51.998;4.466;2022-11-18T14:07:32;22.13;;;12.77;;
68757;SDS011;55747;51.998;4.466;2022-11-18T14:10:03;21.05;;;13.43;;
68757;SDS011;55747;51.998;4.466;2022-11-18T14:12:38;18.75;;;12.82;;
68757;SDS011;55747;51.998;4.466;2022-11-18T14:17:55;22.00;;;13.23;;
68757;SDS011;55747;51.998;4.466;2022-11-18T14:20:23;21.73;;;13.55;;
68757;SDS011;55747;51.998;4.466;2022-11-18T14:22:51;20.95;;;12.95;;
68757;SDS011;55747;51.998;4.466;2022-11-18T14:27:51;22.85;;;13.77;;
68757;SDS011;55747;51.998;4.466;2022-11-18T14:30:29;21.88;;;13.40;;
68757;SDS011;55747;51.998;4.466;2022-11-18T14:33:09;20.80;;;13.20;;
68757;SDS011;55747;51.998;4.466;2022-11-18T14:35:38;20.25;;;12.23;;
68757;SDS011;55747;51.998;4.466;2022-11-18T14:38:14;21.50;;;12.82;;
68757;SDS011;55747;51.998;4.466;2022-11-18T14:40:42;19.67;;;13.00;;
68757;SDS011;55747;51.998;4.466;2022-11-18T14:43:08;24.00;;;12.65;;
68757;SDS011;55747;51.998;4.466;2022-11-18T14:45:36;25.42;;;14.38;;
68757;SDS011;55747;51.998;4.466;2022-11-18T14:48:01;19.85;;;14.05;;
68757;SDS011;55747;51.998;4.466;2022-11-18T14:50:27;18.13;;;13.68;;
68757;SDS011;55747;51.998;4.466;2022-11-18T14:52:52;23.37;;;13.90;;
68757;SDS011;55747;51.998;4.466;2022-11-18T14:55:18;21.47;;;13.80;;
68757;SDS011;55747;51.998;4.466;2022-11-18T14:57:43;19.55;;;14.68;;
68757;SDS011;55747;51.998;4.466;2022-11-18T15:00:12;20.60;;;13.73;;
68757;SDS011;55747;51.998;4.466;2022-11-18T15:02:39;26.08;;;14.40;;
68757;SDS011;55747;51.998;4.466;2022-11-18T15:05:05;23.07;;;14.17;;
68757;SDS011;55747;51.998;4.466;2022-11-18T15:07:30;19.67;;;13.95;;
68757;SDS011;55747;51.998;4.466;2022-11-18T15:09:55;17.30;;;13.80;;
68757;SDS011;55747;51.998;4.466;2022-11-18T15:12:21;20.10;;;14.27;;
68757;SDS011;55747;51.998;4.466;2022-11-18T15:14:46;21.97;;;13.73;;
68757;SDS011;55747;51.998;4.466;2022-11-18T15:17:11;24.73;;;14.63;;
68757;SDS011;55747;51.998;4.466;2022-11-18T15:19:37;25.52;;;14.23;;
68757;SDS011;55747;51.998;4.466;2022-11-18T15:22:04;22.48;;;14.57;;
68757;SDS011;55747;51.998;4.466;2022-11-18T15:24:29;25.13;;;15.18;;
68757;SDS011;55747;51.998;4.466;2022-11-18T15:26:55;25.92;;;14.45;;
68757;SDS011;55747;51.998;4.466;2022-11-18T15:29:21;23.00;;;14.27;;
68757;SDS011;55747;51.998;4.466;2022-11-18T15:31:48;21.73;;;13.70;;
68757;SDS011;55747;51.998;4.466;2022-11-18T15:34:14;21.40;;;14.13;;
68757;SDS011;55747;51.998;4.466;2022-11-18T15:36:42;20.70;;;13.73;;
68757;SDS011;55747;51.998;4.466;2022-11-18T15:39:08;20.65;;;13.60;;
68757;SDS011;55747;51.998;4.466;2022-11-18T15:41:34;24.50;;;14.77;;
68757;SDS011;55747;51.998;4.466;2022-11-18T15:44:02;18.98;;;13.70;;
68757;SDS011;55747;51.998;4.466;2022-11-18T15:46:28;22.92;;;14.18;;
68757;SDS011;55747;51.998;4.466;2022-11-18T15:48:57;23.30;;;14.23;;
68757;SDS011;55747;51.998;4.466;2022-11-18T15:51:23;23.25;;;14.45;;
68757;SDS011;55747;51.998;4.466;2022-11-18T15:53:50;25.75;;;14.80;;
68757;SDS011;55747;51.998;4.466;2022-11-18T15:59:06;23.70;;;15.25;;
68757;SDS011;55747;51.998;4.466;2022-11-18T16:01:38;21.80;;;14.75;;
68757;SDS011;55747;51.998;4.466;2022-11-18T16:04:05;22.10;;;14.85;;
68757;SDS011;55747;51.998;4.466;2022-11-18T16:06:32;26.15;;;15.05;;
68757;SDS011;55747;51.998;4.466;2022-11-18T16:08:58;23.77;;;15.13;;
68757;SDS011;55747;51.998;4.466;2022-11-18T16:11:23;25.55;;;15.70;;
68757;SDS011;55747;51.998;4.466;2022-11-18T16:14:22;24.38;;;15.40;;
68757;SDS011;55747;51.998;4.466;2022-11-18T16:16:48;22.15;;;14.35;;
68757;SDS011;55747;51.998;4.466;2022-11-18T16:19:16;25.52;;;15.80;;
68757;SDS011;55747;51.998;4.466;2022-11-18T16:21:44;25.08;;;15.07;;
68757;SDS011;55747;51.998;4.466;2022-11-18T16:24:12;23.70;;;14.57;;
68757;SDS011;55747;51.998;4.466;2022-11-18T16:26:39;24.63;;;16.08;;
68757;SDS011;55747;51.998;4.466;2022-11-18T16:29:05;29.10;;;16.52;;
68757;SDS011;55747;51.998;4.466;2022-11-18T16:31:31;25.17;;;15.82;;
68757;SDS011;55747;51.998;4.466;2022-11-18T16:36:34;27.52;;;16.25;;
68757;SDS011;55747;51.998;4.466;2022-11-18T16:39:07;28.85;;;16.75;;
68757;SDS011;55747;51.998;4.466;2022-11-18T16:41:34;27.45;;;16.40;;
68757;SDS011;55747;51.998;4.466;2022-11-18T16:44:00;32.03;;;17.63;;